Time;durP1;ratioP1;P1;durP2;ratioP2;P2;SDS_P1;SDS_P2;PMS_P1;PMS_P2;Temp;Humidity;BMP_temperature;BMP_pressure;BME280_temperature;BME280_humidity;BME280_pressure;Samples;Min_cycle;Max_cycle;Signal;HPM_P1;HPM_P2
2024/01/02 00:01:24;;;;;;;6.70;2.50;;;;;;;-128.00;-1.00;-1.00;100485;1285;1003553;-31
2024/01/02 00:03:50;;;;;;;11.40;2.80;;;;;;;-128.00;-1.00;-1.00;100531;1285;1003474;-32
2024/01/02 00:06:16;;;;;;;7.80;3.00;;;;;;;-128.00;-1.00;-1.00;100635;1283;1046071;-32
2024/01/02 00:08:42;;;;;;;10.60;3.10;;;;;;;-128.00;-1.00;-1.00;100505;1286;1004926;-30
2024/01/02 00:11:11;;;;;;;;;;;;;;;-128.00;-1.00;-1.00;100445;1282;1002467;-31
2024/01/02 00:13:36;;;;;;;11.20;2.70;;;;;;;-128.00;-1.00;-1.00;100590;1286;1013351;-33
2024/01/02 00:16:02;;;;;;;9.80;2.90;;;;;;;-128.00;-1.00;-1.00;100452;1282;1003795;-31
2024/01/02 00:18:28;;;;;;;8.60;2.60;;;;;;;-128.00;-1.00;-1.00;100757;1281;1003214;-33
2024/01/02 00:20:53;;;;;;;8.70;2.90;;;;;;;-128.00;-1.00;-1.00;100538;1284;1055858;-31
2024/01/02 00:23:19;;;;;;;7.60;2.30;;;;;;;-128.00;-1.00;-1.00;100423;1285;1003081;-33
2024/01/02 00:25:44;;;;;;;10.10;2.20;;;;;;;-128.00;-1.00;-1.00;100485;1286;1003615;-32
2024/01/02 00:28:11;;;;;;;5.30;1.90;;;;;;;-128.00;-1.00;-1.00;100529;1283;1004722;-33
2024/01/02 00:30:37;;;;;;;9.20;2.80;;;;;;;-128.00;-1.00;-1.00;100638;1283;1055352;-31
2024/01/02 00:33:03;;;;;;;8.80;2.20;;;;;;;-128.00;-1.00;-1.00;100429;1283;1004130;-32
2024/01/02 00:35:29;;;;;;;8.10;2.40;;;;;;;-128.00;-1.00;-1.00;100275;1285;1002186;-32
2024/01/02 00:37:55;;;;;;;5.20;1.80;;;;;;;-128.00;-1.00;-1.00;100591;1286;1004817;-33
2024/01/02 00:40:21;;;;;;;6.30;2.30;;;;;;;-128.00;-1.00;-1.00;100688;1285;1004545;-41
2024/01/02 00:42:47;;;;;;;;;;;;;;;-128.00;-1.00;-1.00;100505;1283;1055875;-31
2024/01/02 00:45:13;;;;;;;7.60;2.40;;;;;;;-128.00;-1.00;-1.00;100420;1283;1003224;-32
2024/01/02 00:47:38;;;;;;;8.20;2.30;;;;;;;-128.00;-1.00;-1.00;100404;1285;1038550;-33
2024/01/02 00:50:04;;;;;;;7.90;2.80;;;;;;;-128.00;-1.00;-1.00;100644;1282;1003035;-31
2024/01/02 00:52:30;;;;;;;;;;;;;;;-128.00;-1.00;-1.00;100527;1283;1003378;-32
2024/01/02 00:54:55;;;;;;;6.90;2.40;;;;;;;-128.00;-1.00;-1.00;100405;1283;1058180;-32
2024/01/02 00:57:21;;;;;;;6.50;2.20;;;;;;;-128.00;-1.00;-1.00;100613;1283;1004168;-31
2024/01/02 00:59:46;;;;;;;5.10;2.40;;;;;;;-128.00;-1.00;-1.00;100493;1285;1005156;-31
2024/01/02 01:02:12;;;;;;;3.40;1.30;;;;;;;-128.00;-1.00;-1.00;100396;1285;1003657;-32
2024/01/02 01:04:42;;;;;;;4.30;1.40;;;;;;;-128.00;-1.00;-1.00;100526;1283;1003102;-33
2024/01/02 01:07:08;;;;;;;6.20;1.30;;;;;;;-128.00;-1.00;-1.00;100643;1283;1013259;-31
2024/01/02 01:09:34;;;;;;;5.30;1.00;;;;;;;-128.00;-1.00;-1.00;100460;1283;1002929;-31
2024/01/02 01:12:00;;;;;;;6.60;1.10;;;;;;;-128.00;-1.00;-1.00;100450;1283;1003840;-33
2024/01/02 01:14:25;;;;;;;4.50;1.10;;;;;;;-128.00;-1.00;-1.00;100432;1282;1055483;-33
2024/01/02 01:16:51;;;;;;;6.30;1.60;;;;;;;-128.00;-1.00;-1.00;100414;1283;1003014;-33
2024/01/02 01:19:16;;;;;;;5.30;1.30;;;;;;;-128.00;-1.00;-1.00;100327;1283;1003594;-33
2024/01/02 01:21:42;;;;;;;6.90;1.70;;;;;;;-128.00;-1.00;-1.00;100497;1282;1003730;-31
2024/01/02 01:24:07;;;;;;;6.10;1.70;;;;;;;-128.00;-1.00;-1.00;100602;1282;1003205;-33
2024/01/02 01:26:33;;;;;;;8.50;1.60;;;;;;;-128.00;-1.00;-1.00;100623;1282;1004242;-31
2024/01/02 01:28:58;;;;;;;4.00;1.30;;;;;;;-128.00;-1.00;-1.00;100597;1285;1003874;-32
2024/01/02 01:31:24;;;;;;;3.50;1.40;;;;;;;-128.00;-1.00;-1.00;100472;1285;1003824;-31
2024/01/02 01:33:50;;;;;;;4.80;0.80;;;;;;;-128.00;-1.00;-1.00;100413;1283;1056110;-33
2024/01/02 01:36:15;;;;;;;5.20;1.30;;;;;;;-128.00;-1.00;-1.00;100390;1283;1004483;-31
2024/01/02 01:38:41;;;;;;;5.90;1.30;;;;;;;-128.00;-1.00;-1.00;100393;1285;1003083;-32
2024/01/02 01:41:06;;;;;;;8.40;1.70;;;;;;;-128.00;-1.00;-1.00;100471;1282;1003424;-31
2024/01/02 01:43:32;;;;;;;5.60;1.60;;;;;;;-128.00;-1.00;-1.00;100494;1286;1002953;-32
2024/01/02 01:45:58;;;;;;;8.00;1.90;;;;;;;-128.00;-1.00;-1.00;100509;1282;1002744;-32
2024/01/02 01:48:23;;;;;;;6.60;1.50;;;;;;;-128.00;-1.00;-1.00;100462;1285;1039040;-33
2024/01/02 01:50:49;;;;;;;5.70;1.60;;;;;;;-128.00;-1.00;-1.00;100493;1283;1003537;-33
2024/01/02 02:33:21;;;;;;;2.90;1.00;;;;;;;-101.86;19.20;19735.52;101098;1284;1600389;-32
2024/01/02 02:35:47;;;;;;;3.10;1.00;;;;;;;-128.00;-1.00;-1.00;100217;1280;1003171;-31
2024/01/02 02:38:12;;;;;;;3.80;1.20;;;;;;;-128.00;-1.00;-1.00;100328;1283;1003928;-32
2024/01/02 02:40:39;;;;;;;4.40;0.90;;;;;;;-128.00;-1.00;-1.00;100347;1283;1057987;-31
2024/01/02 02:43:04;;;;;;;2.10;0.70;;;;;;;-128.00;-1.00;-1.00;100416;1284;1003337;-33
2024/01/02 02:45:32;;;;;;;4.40;0.80;;;;;;;-128.00;-1.00;-1.00;100314;1286;1004654;-34
2024/01/02 02:47:57;;;;;;;5.30;0.90;;;;;;;-128.00;-1.00;-1.00;100428;1282;1004647;-32
2024/01/02 02:50:23;;;;;;;4.90;0.90;;;;;;;-128.00;-1.00;-1.00;100369;1282;1003728;-34
2024/01/02 02:52:48;;;;;;;3.00;0.70;;;;;;;-128.00;-1.00;-1.00;100388;1283;1059140;-31
2024/01/02 02:55:14;;;;;;;2.40;0.60;;;;;;;-128.00;-1.00;-1.00;100391;1283;1003412;-33
2024/01/02 02:57:40;;;;;;;2.30;0.80;;;;;;;-128.00;-1.00;-1.00;100261;1283;1013234;-31
2024/01/02 03:00:06;;;;;;;4.30;0.60;;;;;;;-128.00;-1.00;-1.00;100435;1283;1004018;-32
2024/01/02 03:02:31;;;;;;;;;;;;;;;-128.00;-1.00;-1.00;100381;1283;1003371;-33
2024/01/02 03:04:57;;;;;;;3.90;0.70;;;;;;;-128.00;-1.00;-1.00;100227;1283;1004737;-31
2024/01/02 03:07:22;;;;;;;3.00;0.40;;;;;;;-128.00;-1.00;-1.00;100289;1283;1002948;-37
2024/01/02 03:09:48;;;;;;;3.30;0.70;;;;;;;-128.00;-1.00;-1.00;100266;1285;1004089;-34
2024/01/02 03:12:13;;;;;;;2.60;0.50;;;;;;;-128.00;-1.00;-1.00;100401;1283;1003551;-32
2024/01/02 03:14:39;;;;;;;3.70;0.30;;;;;;;-128.00;-1.00;-1.00;100292;1282;1002929;-33
2024/01/02 03:17:05;;;;;;;6.30;0.60;;;;;;;-128.00;-1.00;-1.00;100480;1283;1003281;-34
2024/01/02 03:19:31;;;;;;;3.60;0.40;;;;;;;-128.00;-1.00;-1.00;100278;1283;1003629;-35
2024/01/02 03:21:56;;;;;;;4.20;0.50;;;;;;;-128.00;-1.00;-1.00;100368;1283;1045957;-35
2024/01/02 03:24:22;;;;;;;4.70;0.70;;;;;;;-128.00;-1.00;-1.00;100326;1283;1004072;-34
2024/01/02 03:26:48;;;;;;;2.30;0.30;;;;;;;-128.00;-1.00;-1.00;100352;1283;1058996;-34
2024/01/02 03:29:16;;;;;;;4.30;0.60;;;;;;;-128.00;-1.00;-1.00;100359;1285;1003078;-34
2024/01/02 03:31:43;;;;;;;1.90;0.60;;;;;;;-128.00;-1.00;-1.00;100293;1285;1003084;-35
2024/01/02 03:34:09;;;;;;;5.20;0.60;;;;;;;-128.00;-1.00;-1.00;100284;1283;1004403;-34
2024/01/02 03:36:34;;;;;;;3.50;0.60;;;;;;;-128.00;-1.00;-1.00;100358;1283;1003730;-34
2024/01/02 03:39:00;;;;;;;3.20;0.50;;;;;;;-128.00;-1.00;-1.00;100362;1285;1059549;-32
2024/01/02 03:41:26;;;;;;;4.50;0.60;;;;;;;-128.00;-1.00;-1.00;100270;1282;1003026;-32
2024/01/02 03:43:51;;;;;;;6.70;0.60;;;;;;;-128.00;-1.00;-1.00;100288;1283;1004090;-31
2024/01/02 03:46:17;;;;;;;5.00;0.70;;;;;;;-128.00;-1.00;-1.00;100274;1283;1059655;-33
2024/01/02 03:48:43;;;;;;;3.20;0.70;;;;;;;-128.00;-1.00;-1.00;100278;1283;1003547;-33
2024/01/02 03:51:08;;;;;;;3.30;0.70;;;;;;;-128.00;-1.00;-1.00;100225;1283;1002843;-32
2024/01/02 03:53:34;;;;;;;5.20;0.70;;;;;;;-128.00;-1.00;-1.00;100246;1282;1038262;-31
2024/01/02 03:56:00;;;;;;;8.40;0.70;;;;;;;-128.00;-1.00;-1.00;100261;1283;1002982;-32
2024/01/02 03:58:27;;;;;;;3.60;0.60;;;;;;;-128.00;-1.00;-1.00;100445;1283;1056343;-35
2024/01/02 04:00:53;;;;;;;5.60;0.50;;;;;;;-128.00;-1.00;-1.00;100295;1283;1004277;-31
2024/01/02 04:03:19;;;;;;;5.20;0.70;;;;;;;-128.00;-1.00;-1.00;100393;1283;1002891;-32
2024/01/02 04:05:44;;;;;;;1.90;0.40;;;;;;;-128.00;-1.00;-1.00;100428;1283;1003653;-35
2024/01/02 04:08:11;;;;;;;2.00;0.60;;;;;;;-128.00;-1.00;-1.00;100356;1283;1003435;-32
2024/01/02 04:10:38;;;;;;;3.50;0.50;;;;;;;-128.00;-1.00;-1.00;100372;1283;1054936;-34
2024/01/02 04:13:04;;;;;;;8.40;0.90;;;;;;;-128.00;-1.00;-1.00;100233;1283;1003073;-30
2024/01/02 04:15:30;;;;;;;9.50;0.80;;;;;;;-128.00;-1.00;-1.00;100177;1289;1004868;-33
2024/01/02 04:17:55;;;;;;;5.70;0.80;;;;;;;-128.00;-1.00;-1.00;100307;1285;1003155;-33
2024/01/02 04:20:21;;;;;;;3.90;0.50;;;;;;;-128.00;-1.00;-1.00;100277;1282;1058581;-33
2024/01/02 04:22:46;;;;;;;3.40;0.70;;;;;;;-128.00;-1.00;-1.00;100402;1283;1003206;-33
2024/01/02 04:25:12;;;;;;;4.60;0.50;;;;;;;-128.00;-1.00;-1.00;100261;1283;1003080;-33
2024/01/02 04:27:38;;;;;;;4.50;0.50;;;;;;;-128.00;-1.00;-1.00;100376;1285;1039444;-31
2024/01/02 04:30:04;;;;;;;4.40;0.60;;;;;;;-128.00;-1.00;-1.00;100343;1283;1003532;-31
2024/01/02 04:32:30;;;;;;;4.20;0.60;;;;;;;-128.00;-1.00;-1.00;100349;1283;1003138;-32
2024/01/02 04:34:55;;;;;;;1.70;0.40;;;;;;;-128.00;-1.00;-1.00;100480;1285;1003452;-33
2024/01/02 04:37:21;;;;;;;3.00;0.40;;;;;;;-128.00;-1.00;-1.00;100198;1282;1013410;-32
2024/01/02 04:39:47;;;;;;;;;;;;;;;-128.00;-1.00;-1.00;100368;1283;1002988;-33
2024/01/02 04:42:12;;;;;;;9.90;0.70;;;;;;;-128.00;-1.00;-1.00;100270;1283;1003157;-32
2024/01/02 04:44:38;;;;;;;2.60;0.50;;;;;;;-128.00;-1.00;-1.00;100256;1283;1056352;-33
2024/01/02 04:47:04;;;;;;;5.30;0.50;;;;;;;-128.00;-1.00;-1.00;100206;1282;1003476;-34
2024/01/02 04:49:29;;;;;;;5.90;0.60;;;;;;;-128.00;-1.00;-1.00;100265;1285;1004970;-34
2024/01/02 04:51:55;;;;;;;4.00;0.50;;;;;;;-128.00;-1.00;-1.00;100366;1283;1046918;-33
2024/01/02 04:54:21;;;;;;;4.40;0.60;;;;;;;-128.00;-1.00;-1.00;100199;1288;1003352;-32
2024/01/02 04:56:46;;;;;;;12.20;0.80;;;;;;;-128.00;-1.00;-1.00;100279;1285;1002606;-32
2024/01/02 04:59:12;;;;;;;7.20;0.60;;;;;;;-128.00;-1.00;-1.00;100259;1283;1012256;-32
2024/01/02 05:01:37;;;;;;;4.60;0.60;;;;;;;-128.00;-1.00;-1.00;100294;1283;1003733;-32
2024/01/02 05:04:04;;;;;;;9.20;1.10;;;;;;;-128.00;-1.00;-1.00;100334;1286;1003157;-32
2024/01/02 05:06:30;;;;;;;9.50;1.80;;;;;;;-128.00;-1.00;-1.00;100336;1283;1056508;-30
2024/01/02 05:08:56;;;;;;;9.50;1.50;;;;;;;-128.00;-1.00;-1.00;99972;1289;1004875;-30
2024/01/02 05:11:22;;;;;;;9.80;1.00;;;;;;;-128.00;-1.00;-1.00;100567;1283;1003583;-30
2024/01/02 05:13:48;;;;;;;6.80;0.90;;;;;;;-128.00;-1.00;-1.00;100291;1285;1045993;-31
2024/01/02 05:16:14;;;;;;;3.90;0.80;;;;;;;-128.00;-1.00;-1.00;100266;1285;1002957;-32
2024/01/02 05:18:40;;;;;;;7.90;1.00;;;;;;;-128.00;-1.00;-1.00;100373;1283;1003404;-32
2024/01/02 05:21:07;;;;;;;2.60;0.80;;;;;;;-128.00;-1.00;-1.00;100294;1283;1013534;-32
2024/01/02 05:23:33;;;;;;;6.10;0.80;;;;;;;-128.00;-1.00;-1.00;100266;1285;1004150;-33
2024/01/02 05:25:59;;;;;;;10.70;1.30;;;;;;;-128.00;-1.00;-1.00;100348;1282;1004516;-33
2024/01/02 05:28:26;;;;;;;12.00;1.70;;;;;;;-128.00;-1.00;-1.00;100359;1283;1004151;-32
2024/01/02 05:30:52;;;;;;;10.20;1.90;;;;;;;-128.00;-1.00;-1.00;100204;1282;1003080;-33
2024/01/02 05:33:17;;;;;;;9.10;2.10;;;;;;;-128.00;-1.00;-1.00;100283;1283;1003217;-35
2024/01/02 05:35:43;;;;;;;10.30;2.20;;;;;;;-128.00;-1.00;-1.00;100351;1286;1003140;-31
2024/01/02 05:38:09;;;;;;;8.10;1.70;;;;;;;-128.00;-1.00;-1.00;100284;1283;1003294;-30
2024/01/02 05:40:34;;;;;;;10.80;2.40;;;;;;;-128.00;-1.00;-1.00;100342;1283;1003886;-31
2024/01/02 05:43:00;;;;;;;8.40;1.30;;;;;;;-128.00;-1.00;-1.00;100166;1287;1004064;-31
2024/01/02 05:45:25;;;;;;;15.90;1.70;;;;;;;-128.00;-1.00;-1.00;100227;1283;1013159;-31
2024/01/02 05:47:51;;;;;;;8.70;2.50;;;;;;;-128.00;-1.00;-1.00;100352;1283;1003380;-30
2024/01/02 05:50:16;;;;;;;8.10;2.50;;;;;;;-128.00;-1.00;-1.00;100405;1284;1058961;-31
2024/01/02 05:52:42;;;;;;;4.40;1.30;;;;;;;-128.00;-1.00;-1.00;100375;1283;1003454;-31
2024/01/02 05:55:09;;;;;;;7.80;1.20;;;;;;;-128.00;-1.00;-1.00;100301;1285;1013222;-35
2024/01/02 05:57:35;;;;;;;6.60;1.80;;;;;;;-128.00;-1.00;-1.00;100306;1286;1002751;-33
2024/01/02 06:00:00;;;;;;;;;;;;;;;-128.00;-1.00;-1.00;100404;1283;1003768;-32
2024/01/02 06:02:26;;;;;;;8.00;1.20;;;;;;;-128.00;-1.00;-1.00;100353;1283;1004608;-31
2024/01/02 06:04:51;;;;;;;6.70;1.40;;;;;;;-128.00;-1.00;-1.00;100114;1282;1059011;-30
2024/01/02 06:07:17;;;;;;;6.10;1.50;;;;;;;-128.00;-1.00;-1.00;100339;1285;1003085;-31
2024/01/02 06:09:43;;;;;;;6.20;1.20;;;;;;;-128.00;-1.00;-1.00;100558;1283;1046954;-31
2024/01/02 06:12:09;;;;;;;;;;;;;;;-128.00;-1.00;-1.00;100295;1283;1002916;-32
2024/01/02 06:14:34;;;;;;;12.90;2.40;;;;;;;-128.00;-1.00;-1.00;100254;1283;1003207;-33
2024/01/02 06:17:00;;;;;;;8.80;1.70;;;;;;;-128.00;-1.00;-1.00;100341;1283;1013659;-32
2024/01/02 06:19:26;;;;;;;5.20;1.80;;;;;;;-128.00;-1.00;-1.00;100293;1283;1002613;-31
2024/01/02 06:21:51;;;;;;;9.80;1.70;;;;;;;-128.00;-1.00;-1.00;100208;1283;1004551;-32
2024/01/02 06:24:16;;;;;;;10.50;2.10;;;;;;;-128.00;-1.00;-1.00;100319;1282;1003617;-31
2024/01/02 06:26:42;;;;;;;7.30;1.80;;;;;;;-128.00;-1.00;-1.00;100242;1283;1004140;-32
2024/01/02 06:29:08;;;;;;;15.30;2.70;;;;;;;-128.00;-1.00;-1.00;100311;1284;1003911;-32
2024/01/02 06:31:33;;;;;;;11.50;3.10;;;;;;;-128.00;-1.00;-1.00;100279;1283;1003486;-31
2024/01/02 06:33:59;;;;;;;7.80;2.50;;;;;;;-128.00;-1.00;-1.00;100380;1285;1055099;-31
2024/01/02 06:36:25;;;;;;;13.90;2.80;;;;;;;-128.00;-1.00;-1.00;100315;1283;1003186;-32
2024/01/02 06:38:50;;;;;;;14.00;3.10;;;;;;;-128.00;-1.00;-1.00;100282;1285;1003713;-33
2024/01/02 06:41:16;;;;;;;8.60;2.50;;;;;;;-128.00;-1.00;-1.00;100259;1283;1046578;-32
2024/01/02 06:43:41;;;;;;;9.80;2.30;;;;;;;-128.00;-1.00;-1.00;100221;1286;1002959;-31
2024/01/02 06:46:07;;;;;;;11.70;2.00;;;;;;;-128.00;-1.00;-1.00;100243;1282;1003405;-31
2024/01/02 06:48:34;;;;;;;8.70;2.50;;;;;;;-128.00;-1.00;-1.00;100307;1285;1002637;-33
2024/01/02 06:50:59;;;;;;;13.00;3.20;;;;;;;-128.00;-1.00;-1.00;100349;1283;1003196;-32
2024/01/02 06:53:25;;;;;;;18.40;3.70;;;;;;;-128.00;-1.00;-1.00;100228;1285;1003509;-31
2024/01/02 06:55:51;;;;;;;21.50;5.20;;;;;;;-128.00;-1.00;-1.00;100261;1285;1056220;-34
2024/01/02 06:58:16;;;;;;;19.10;5.50;;;;;;;-128.00;-1.00;-1.00;100186;1283;1003127;-33
2024/01/02 07:00:42;;;;;;;17.90;4.20;;;;;;;-128.00;-1.00;-1.00;100241;1283;1003023;-32
2024/01/02 07:03:09;;;;;;;13.90;3.10;;;;;;;-128.00;-1.00;-1.00;100394;1282;1002634;-32
2024/01/02 07:05:36;;;;;;;7.30;2.40;;;;;;;-128.00;-1.00;-1.00;100250;1283;1003548;-32
2024/01/02 07:08:02;;;;;;;10.40;3.20;;;;;;;-128.00;-1.00;-1.00;100326;1283;1003238;-30
2024/01/02 07:10:28;;;;;;;11.20;2.90;;;;;;;-128.00;-1.00;-1.00;100471;1282;1003631;-32
2024/01/02 07:12:54;;;;;;;13.50;3.50;;;;;;;-128.00;-1.00;-1.00;100241;1285;1003377;-31
2024/01/02 07:15:19;;;;;;;16.90;4.60;;;;;;;-128.00;-1.00;-1.00;100204;1287;1003284;-32
2024/01/02 07:17:45;;;;;;;20.10;4.90;;;;;;;-128.00;-1.00;-1.00;100232;1283;1060086;-33
2024/01/02 07:20:12;;;;;;;17.20;5.40;;;;;;;-128.00;-1.00;-1.00;100247;1285;1004510;-32
2024/01/02 07:22:38;;;;;;;17.40;4.50;;;;;;;-128.00;-1.00;-1.00;100320;1289;1013227;-33
2024/01/02 07:25:04;;;;;;;12.30;3.80;;;;;;;-128.00;-1.00;-1.00;100345;1284;1003504;-32
2024/01/02 07:27:29;;;;;;;23.30;4.10;;;;;;;-128.00;-1.00;-1.00;100276;1283;1002066;-31
2024/01/02 07:29:55;;;;;;;16.80;4.00;;;;;;;-128.00;-1.00;-1.00;100345;1283;1003091;-33
2024/01/02 07:32:21;;;;;;;16.10;4.10;;;;;;;-128.00;-1.00;-1.00;100211;1283;1059358;-33
2024/01/02 07:34:46;;;;;;;16.60;4.30;;;;;;;-128.00;-1.00;-1.00;100463;1283;1002931;-32
2024/01/02 07:37:12;;;;;;;17.10;4.30;;;;;;;-128.00;-1.00;-1.00;100303;1285;1002806;-32
2024/01/02 07:39:38;;;;;;;16.40;4.70;;;;;;;-128.00;-1.00;-1.00;100228;1282;1060514;-31
2024/01/02 07:42:05;;;;;;;20.00;5.20;;;;;;;-128.00;-1.00;-1.00;100293;1286;1002644;-32
2024/01/02 07:44:31;;;;;;;12.80;4.20;;;;;;;-128.00;-1.00;-1.00;100317;1287;1002581;-33
2024/01/02 07:46:57;;;;;;;14.20;3.90;;;;;;;-128.00;-1.00;-1.00;100302;1283;1002714;-32
2024/01/02 07:49:23;;;;;;;;;;;;;;;-128.00;-1.00;-1.00;100281;1286;1002904;-30
2024/01/02 07:51:48;;;;;;;20.70;5.00;;;;;;;-128.00;-1.00;-1.00;100199;1289;1002567;-29
2024/01/02 07:54:14;;;;;;;22.10;5.70;;;;;;;-128.00;-1.00;-1.00;100379;1283;1004693;-31
2024/01/02 07:56:39;;;;;;;11.60;4.90;;;;;;;-128.00;-1.00;-1.00;100213;1285;1012258;-32
2024/01/02 07:59:05;;;;;;;23.00;5.20;;;;;;;-128.00;-1.00;-1.00;100326;1288;1003019;-30
2024/01/02 08:01:31;;;;;;;17.00;4.90;;;;;;;-128.00;-1.00;-1.00;100296;1283;1002766;-31
2024/01/02 08:03:57;;;;;;;18.80;5.30;;;;;;;-128.00;-1.00;-1.00;100319;1286;1002708;-30
2024/01/02 08:06:22;;;;;;;16.70;4.00;;;;;;;-128.00;-1.00;-1.00;100331;1282;1002870;-30
2024/01/02 08:08:49;;;;;;;17.20;5.50;;;;;;;-128.00;-1.00;-1.00;100213;1289;1039522;-31
2024/01/02 08:11:14;;;;;;;15.50;4.80;;;;;;;-128.00;-1.00;-1.00;100362;1286;1003583;-31
2024/01/02 08:13:40;;;;;;;25.30;5.60;;;;;;;-128.00;-1.00;-1.00;100284;1283;1003571;-32
2024/01/02 08:16:06;;;;;;;14.60;4.10;;;;;;;-128.00;-1.00;-1.00;100249;1284;1003263;-32
2024/01/02 08:18:39;;;;;;;21.30;4.40;;;;;;;-128.00;-1.00;-1.00;100256;1283;1013499;-30
2024/01/02 08:21:07;;;;;;;20.20;3.90;;;;;;;-128.00;-1.00;-1.00;100327;1288;1038150;-32
2024/01/02 08:23:35;;;;;;;17.50;4.50;;;;;;;-128.00;-1.00;-1.00;100378;1282;1003054;-31
2024/01/02 08:26:02;;;;;;;25.20;4.80;;;;;;;-128.00;-1.00;-1.00;100254;1285;1003395;-33
2024/01/02 08:28:28;;;;;;;10.70;3.90;;;;;;;-128.00;-1.00;-1.00;100233;1283;1003200;-35
2024/01/02 08:30:54;;;;;;;13.40;3.80;;;;;;;-128.00;-1.00;-1.00;100223;1283;1002283;-29
2024/01/02 08:33:20;;;;;;;15.00;3.50;;;;;;;-128.00;-1.00;-1.00;100237;1287;1003045;-30
2024/01/02 08:35:46;;;;;;;18.30;4.10;;;;;;;-128.00;-1.00;-1.00;100497;1283;1045975;-30
2024/01/02 08:38:11;;;;;;;17.20;3.50;;;;;;;-128.00;-1.00;-1.00;100425;1283;1002736;-31
2024/01/02 08:40:37;;;;;;;13.70;3.60;;;;;;;-128.00;-1.00;-1.00;100357;1286;1003322;-31
2024/01/02 08:43:04;;;;;;;16.20;3.00;;;;;;;-128.00;-1.00;-1.00;100239;1286;1003837;-30
2024/01/02 08:45:29;;;;;;;9.20;3.20;;;;;;;-128.00;-1.00;-1.00;100288;1285;1003034;-31
2024/01/02 08:47:55;;;;;;;10.80;3.30;;;;;;;-128.00;-1.00;-1.00;100300;1286;1002572;-31
2024/01/02 08:50:21;;;;;;;11.20;2.20;;;;;;;-128.00;-1.00;-1.00;100218;1283;1056083;-31
2024/01/02 08:52:47;;;;;;;24.80;4.10;;;;;;;-128.00;-1.00;-1.00;100188;1288;1002936;-31
2024/01/02 08:55:14;;;;;;;15.70;3.90;;;;;;;-128.00;-1.00;-1.00;100306;1283;1003458;-31
2024/01/02 08:57:40;;;;;;;18.50;3.90;;;;;;;-128.00;-1.00;-1.00;100300;1286;1003320;-31
2024/01/02 09:00:07;;;;;;;8.30;3.70;;;;;;;-128.00;-1.00;-1.00;100395;1282;1003774;-31
2024/01/02 09:02:33;;;;;;;21.40;3.70;;;;;;;-128.00;-1.00;-1.00;100275;1285;1003021;-32
2024/01/02 09:04:59;;;;;;;12.80;3.20;;;;;;;-128.00;-1.00;-1.00;100212;1282;1003333;-31
2024/01/02 09:07:24;;;;;;;10.60;3.60;;;;;;;-128.00;-1.00;-1.00;100486;1283;1003370;-32
2024/01/02 09:09:50;;;;;;;15.60;4.40;;;;;;;-128.00;-1.00;-1.00;100312;1282;1003098;-31
2024/01/02 09:12:15;;;;;;;14.50;3.70;;;;;;;-128.00;-1.00;-1.00;100315;1286;1003235;-32
2024/01/02 09:14:41;;;;;;;19.90;4.50;;;;;;;-128.00;-1.00;-1.00;100391;1285;1004353;-33
2024/01/02 09:17:06;;;;;;;18.30;4.30;;;;;;;-128.00;-1.00;-1.00;100369;1286;1003344;-32
2024/01/02 09:19:32;;;;;;;16.80;4.00;;;;;;;-128.00;-1.00;-1.00;100407;1285;1003589;-30
2024/01/02 09:21:58;;;;;;;13.30;3.80;;;;;;;-128.00;-1.00;-1.00;100369;1286;1002579;-30
2024/01/02 09:24:23;;;;;;;22.60;4.80;;;;;;;-128.00;-1.00;-1.00;100283;1283;1060745;-30
2024/01/02 09:26:51;;;;;;;19.30;4.50;;;;;;;-128.00;-1.00;-1.00;100416;1283;1003705;-32
2024/01/02 09:29:17;;;;;;;15.10;4.40;;;;;;;-128.00;-1.00;-1.00;100209;1283;1003700;-32
2024/01/02 09:31:43;;;;;;;14.40;4.40;;;;;;;-128.00;-1.00;-1.00;100254;1285;1002296;-31
2024/01/02 09:34:12;;;;;;;16.10;4.50;;;;;;;-128.00;-1.00;-1.00;100257;1282;1003405;-30
2024/01/02 09:36:37;;;;;;;17.90;3.70;;;;;;;-128.00;-1.00;-1.00;100300;1283;1002851;-32
2024/01/02 09:39:03;;;;;;;14.90;4.30;;;;;;;-128.00;-1.00;-1.00;100338;1283;1002996;-31
2024/01/02 09:41:36;;;;;;;16.00;5.70;;;;;;;-128.00;-1.00;-1.00;100304;1285;1059035;-31
2024/01/02 09:44:24;;;;;;;14.00;5.00;;;;;;;-128.00;-1.00;-1.00;100244;1283;1013627;-32
2024/01/02 09:47:09;;;;;;;25.80;9.30;;;;;;;-128.00;-1.00;-1.00;100293;1287;1039196;-32
2024/01/02 09:49:35;;;;;;;16.50;5.00;;;;;;;-128.00;-1.00;-1.00;100420;1286;1046985;-30
2024/01/02 09:52:25;;;;;;;17.60;7.50;;;;;;;-128.00;-1.00;-1.00;100228;1283;1003424;-31
2024/01/02 09:55:17;;;;;;;48.70;21.30;;;;;;;-128.00;-1.00;-1.00;100419;1283;1055870;-31
2024/01/02 09:57:49;;;;;;;78.30;27.10;;;;;;;-128.00;-1.00;-1.00;100262;1285;1059348;-37
2024/01/02 10:00:20;;;;;;;57.60;22.00;;;;;;;-128.00;-1.00;-1.00;100208;1286;1011934;-31
2024/01/02 10:03:10;;;;;;;50.60;18.60;;;;;;;-128.00;-1.00;-1.00;100450;1282;1038923;-30
2024/01/02 10:06:07;;;;;;;25.70;10.40;;;;;;;-128.00;-1.00;-1.00;100251;1286;1045569;-31
2024/01/02 10:08:43;;;;;;;;;;;;;;;-128.00;-1.00;-1.00;100315;1283;1060271;-31
2024/01/02 10:11:32;;;;;;;19.00;8.50;;;;;;;-128.00;-1.00;-1.00;100341;1283;1055458;-30
2024/01/02 10:14:02;;;;;;;18.50;6.50;;;;;;;-128.00;-1.00;-1.00;100187;1285;1057959;-31
2024/01/02 10:16:37;;;;;;;19.00;5.10;;;;;;;-128.00;-1.00;-1.00;100252;1286;1012667;-31
2024/01/02 10:19:23;;;;;;;14.50;5.00;;;;;;;-128.00;-1.00;-1.00;100251;1285;1038351;-30
2024/01/02 10:21:57;;;;;;;22.40;6.20;;;;;;;-128.00;-1.00;-1.00;100206;1283;1046021;-31
2024/01/02 10:24:28;;;;;;;20.50;6.70;;;;;;;-128.00;-1.00;-1.00;100354;1286;1058997;-34
2024/01/02 10:27:14;;;;;;;32.00;6.20;;;;;;;-128.00;-1.00;-1.00;100322;1283;1056929;-32
2024/01/02 10:30:06;;;;;;;18.70;5.10;;;;;;;-128.00;-1.00;-1.00;100291;1285;1059127;-33
2024/01/02 10:33:02;;;;;;;14.30;4.30;;;;;;;-128.00;-1.00;-1.00;100268;1285;1013447;-31
2024/01/02 10:35:35;;;;;;;14.90;4.80;;;;;;;-128.00;-1.00;-1.00;100302;1285;1038991;-30
2024/01/02 10:38:07;;;;;;;14.90;4.40;;;;;;;-128.00;-1.00;-1.00;100321;1286;1046795;-31
2024/01/02 10:40:33;;;;;;;17.60;5.00;;;;;;;-128.00;-1.00;-1.00;100289;1282;1058710;-30
2024/01/02 10:43:04;;;;;;;21.30;5.40;;;;;;;-128.00;-1.00;-1.00;100279;1283;1003601;-31
2024/01/02 10:45:44;;;;;;;15.50;4.70;;;;;;;-128.00;-1.00;-1.00;100263;1283;1057895;-32
2024/01/02 10:48:27;;;;;;;23.20;5.90;;;;;;;-128.00;-1.00;-1.00;100008;1283;1013030;-30
2024/01/02 10:51:00;;;;;;;20.20;6.10;;;;;;;-128.00;-1.00;-1.00;100276;1285;1039332;-33
2024/01/02 10:53:45;;;;;;;25.70;6.50;;;;;;;-128.00;-1.00;-1.00;100386;1283;1045731;-31
2024/01/02 10:56:13;;;;;;;21.90;6.20;;;;;;;-128.00;-1.00;-1.00;100293;1282;1059870;-32
2024/01/02 10:58:46;;;;;;;19.90;5.70;;;;;;;-128.00;-1.00;-1.00;100259;1282;1002811;-33
2024/01/02 11:01:16;;;;;;;22.40;5.80;;;;;;;-128.00;-1.00;-1.00;100304;1285;1057845;-31
2024/01/02 11:03:48;;;;;;;21.20;6.30;;;;;;;-128.00;-1.00;-1.00;100324;1283;1012912;-32
2024/01/02 11:06:34;;;;;;;17.20;5.20;;;;;;;-128.00;-1.00;-1.00;100240;1282;1039323;-32
2024/01/02 11:09:17;;;;;;;22.00;6.60;;;;;;;-128.00;-1.00;-1.00;100319;1283;1046674;-32
2024/01/02 11:11:42;;;;;;;65.30;20.10;;;;;;;-128.00;-1.00;-1.00;100328;1283;1060441;-32
2024/01/02 11:14:09;;;;;;;58.70;19.60;;;;;;;-128.00;-1.00;-1.00;100267;1283;1002436;-32
2024/01/02 11:16:38;;;;;;;31.70;10.50;;;;;;;-128.00;-1.00;-1.00;100223;1282;1004767;-30
2024/01/02 11:19:04;;;;;;;36.50;16.00;;;;;;;-128.00;-1.00;-1.00;100273;1283;1004902;-31
2024/01/02 11:21:41;;;;;;;158.50;51.90;;;;;;;-128.00;-1.00;-1.00;100245;1283;1002818;-32
2024/01/02 11:24:08;;;;;;;209.70;60.10;;;;;;;-128.00;-1.00;-1.00;100230;1285;1045886;-32
2024/01/02 11:26:40;;;;;;;175.80;48.60;;;;;;;-128.00;-1.00;-1.00;100317;1283;1002865;-32
2024/01/02 11:29:06;;;;;;;280.80;83.50;;;;;;;-128.00;-1.00;-1.00;100305;1282;1055809;-32
2024/01/02 11:31:32;;;;;;;169.40;52.00;;;;;;;-128.00;-1.00;-1.00;100224;1285;1003463;-31
2024/01/02 11:34:22;;;;;;;203.60;72.30;;;;;;;-128.00;-1.00;-1.00;100237;1283;1003312;-32
2024/01/02 11:37:11;;;;;;;104.60;36.20;;;;;;;-128.00;-1.00;-1.00;100352;1285;1038952;-34
2024/01/02 11:40:01;;;;;;;80.50;28.50;;;;;;;-128.00;-1.00;-1.00;100276;1285;1045802;-31
2024/01/02 11:42:46;;;;;;;90.60;32.90;;;;;;;-128.00;-1.00;-1.00;100307;1283;1062025;-31
2024/01/02 11:45:13;;;;;;;100.00;36.60;;;;;;;-128.00;-1.00;-1.00;100313;1283;1056309;-30
2024/01/02 11:48:04;;;;;;;63.80;26.10;;;;;;;-128.00;-1.00;-1.00;100269;1285;1003267;-30
2024/01/02 11:50:41;;;;;;;46.90;19.50;;;;;;;-128.00;-1.00;-1.00;100261;1283;1013010;-32
2024/01/02 11:53:12;;;;;;;36.60;14.00;;;;;;;-128.00;-1.00;-1.00;100189;1289;1038749;-31
2024/01/02 11:55:51;;;;;;;22.40;9.90;;;;;;;-128.00;-1.00;-1.00;100342;1283;1045880;-32
2024/01/02 11:58:41;;;;;;;26.10;6.40;;;;;;;-128.00;-1.00;-1.00;100285;1282;1059157;-32